Time;durP1;ratioP1;P1;durP2;ratioP2;P2;SDS_P1;SDS_P2;PMS_P1;PMS_P2;Temp;Humidity;BMP_temperature;BMP_pressure;BME280_temperature;BME280_humidity;BME280_pressure;Samples;Min_cycle;Max_cycle;Signal;HPM_P1;HPM_P2
2022/10/23 00:01:25;;;;;;;3.00;1.90;;;19.70;99.90;;;;;;4994122;28;20455;-84
2022/10/23 00:03:55;;;;;;;2.30;2.00;;;19.50;99.90;;;;;;4994136;28;20373;-86
2022/10/23 00:06:23;;;;;;;1.60;1.50;;;19.40;99.90;;;;;;4993874;28;20388;-86
2022/10/23 00:08:50;;;;;;;1.80;1.52;;;19.40;99.90;;;;;;4994454;28;20381;-84
2022/10/23 00:11:21;;;;;;;1.58;1.30;;;19.30;99.90;;;;;;4993798;28;20409;-86
2022/10/23 00:13:48;;;;;;;1.70;1.55;;;19.30;99.90;;;;;;4994493;28;20486;-86
2022/10/23 00:16:15;;;;;;;1.77;1.40;;;19.30;99.90;;;;;;4994038;28;20389;-84
2022/10/23 00:18:43;;;;;;;2.17;1.75;;;19.40;99.90;;;;;;4994176;28;20869;-87
2022/10/23 00:21:12;;;;;;;1.80;1.70;;;19.40;99.90;;;;;;4996472;28;20809;-85
2022/10/23 00:23:39;;;;;;;2.60;1.80;;;19.30;99.90;;;;;;4994026;28;20912;-85
2022/10/23 00:26:10;;;;;;;2.33;1.80;;;19.50;99.90;;;;;;4993359;28;20401;-87
2022/10/23 00:28:37;;;;;;;1.70;1.60;;;19.50;99.90;;;;;;4993650;28;20729;-85
2022/10/23 00:31:05;;;;;;;1.50;1.40;;;19.80;99.90;;;;;;4993502;28;20423;-87
2022/10/23 00:33:33;;;;;;;2.35;1.70;;;20.00;99.90;;;;;;4993595;28;20381;-87
2022/10/23 00:36:00;;;;;;;1.92;1.70;;;20.30;99.90;;;;;;4993284;28;20397;-87
2022/10/23 00:38:27;;;;;;;2.17;1.63;;;20.50;99.90;;;;;;4993682;28;20785;-89
2022/10/23 00:40:54;;;;;;;1.60;1.50;;;20.70;99.90;;;;;;4993302;28;20396;-85
2022/10/23 00:43:24;;;;;;;1.97;1.57;;;21.00;99.90;;;;;;4991959;28;20432;-85
2022/10/23 00:45:52;;;;;;;1.60;1.48;;;21.40;99.90;;;;;;4993312;28;20381;-85
2022/10/23 00:48:20;;;;;;;1.80;1.70;;;21.70;99.90;;;;;;4997850;28;20377;-85
2022/10/23 00:50:48;;;;;;;2.53;2.10;;;21.90;99.90;;;;;;4993340;28;20408;-85
2022/10/23 00:53:18;;;;;;;2.43;2.20;;;21.90;99.90;;;;;;4992563;28;20911;-90
2022/10/23 00:55:50;;;;;;;1.90;1.70;;;21.80;99.90;;;;;;4994672;28;20408;-86
2022/10/23 00:58:19;;;;;;;1.50;1.40;;;21.90;99.90;;;;;;4994947;28;20377;-84
2022/10/23 01:00:48;;;;;;;2.28;1.30;;;22.00;99.90;;;;;;4992988;28;20384;-85
2022/10/23 01:03:18;;;;;;;5.65;1.52;;;22.10;99.90;;;;;;4993297;28;20539;-90
2022/10/23 01:06:13;;;;;;;1.88;1.30;;;22.10;99.90;;;;;;4994278;28;20868;-88
2022/10/23 01:08:58;;;;;;;3.83;1.30;;;22.10;99.90;;;;;;4993676;28;20408;-88
2022/10/23 01:11:54;;;;;;;2.40;1.20;;;22.10;99.90;;;;;;4995762;28;20457;-86
2022/10/23 01:14:29;;;;;;;1.25;1.15;;;22.00;99.90;;;;;;5008217;28;20389;-87
2022/10/23 01:17:14;;;;;;;1.47;1.10;;;23.80;99.90;;;;;;4995740;28;20456;-85
2022/10/23 01:20:14;;;;;;;1.40;1.00;;;22.10;99.90;;;;;;5005446;28;20379;-86
2022/10/23 01:23:02;;;;;;;1.00;0.90;;;22.10;99.90;;;;;;4997590;28;20404;-83
2022/10/23 01:25:34;;;;;;;1.10;1.00;;;22.20;99.90;;;;;;4998999;28;20923;-86
2022/10/23 01:28:09;;;;;;;0.70;0.70;;;22.30;99.90;;;;;;4998922;28;21298;-86
2022/10/23 01:30:44;;;;;;;1.00;1.00;;;22.50;99.90;;;;;;4996206;28;20405;-85
2022/10/23 01:33:20;;;;;;;1.67;1.05;;;22.60;99.90;;;;;;5012978;28;20804;-87
2022/10/23 01:35:59;;;;;;;3.10;1.10;;;23.10;99.90;;;;;;5006142;28;20873;-89
2022/10/23 01:38:49;;;;;;;1.25;1.20;;;23.50;99.90;;;;;;5014038;28;20441;-86
2022/10/23 01:41:49;;;;;;;1.40;1.30;;;23.80;99.90;;;;;;5002369;28;20377;-87
2022/10/23 01:44:45;;;;;;;1.40;1.15;;;23.70;99.90;;;;;;5006104;28;20974;-90
2022/10/23 01:47:15;;;;;;;3.22;1.30;;;23.80;99.90;;;;;;5019777;28;20442;-87
2022/10/23 01:50:04;;;;;;;0.98;0.95;;;23.90;99.90;;;;;;5008871;28;20391;-88
2022/10/23 01:52:36;;;;;;;1.40;1.08;;;23.90;99.90;;;;;;5018592;28;20408;-86
2022/10/23 01:55:13;;;;;;;0.95;0.90;;;23.90;99.90;;;;;;5005797;28;20388;-87
2022/10/23 01:57:44;;;;;;;1.15;1.08;;;24.00;99.90;;;;;;5005501;28;20376;-86
2022/10/23 02:00:19;;;;;;;1.20;1.10;;;24.30;99.90;;;;;;5006280;28;20377;-85
2022/10/23 02:02:49;;;;;;;1.35;1.00;;;24.20;99.90;;;;;;5003459;28;20385;-85
2022/10/23 02:05:23;;;;;;;1.40;1.13;;;24.10;99.90;;;;;;5001677;28;20465;-88
2022/10/23 02:07:55;;;;;;;1.48;1.10;;;23.90;99.90;;;;;;5003849;28;20380;-86
2022/10/23 02:10:46;;;;;;;2.72;1.40;;;23.50;99.90;;;;;;4983336;28;20411;-86
2022/10/23 02:13:32;;;;;;;1.50;1.40;;;23.30;99.90;;;;;;5004439;28;21197;-86
2022/10/23 02:16:26;;;;;;;3.63;1.73;;;23.10;99.90;;;;;;5006697;28;20753;-82
2022/10/23 02:19:12;;;;;;;3.38;2.00;;;22.90;99.90;;;;;;5004281;28;20373;-81
2022/10/23 02:21:56;;;;;;;2.33;1.90;;;22.70;99.90;;;;;;5002705;28;20475;-88
2022/10/23 02:24:41;;;;;;;2.10;1.90;;;24.40;99.90;;;;;;4982623;28;20450;-90
2022/10/23 02:27:15;;;;;;;2.70;2.03;;;22.90;99.90;;;;;;4986365;28;20818;-88
2022/10/23 02:30:10;;;;;;;2.75;1.88;;;23.10;99.90;;;;;;4982427;28;20418;-90
2022/10/23 02:32:52;;;;;;;2.65;2.30;;;23.20;99.90;;;;;;4969126;28;20414;-86
2022/10/23 02:35:26;;;;;;;2.10;1.90;;;23.20;99.90;;;;;;4982037;28;20379;-81
2022/10/23 02:38:02;;;;;;;2.28;1.90;;;23.30;99.90;;;;;;5003640;28;20473;-84
2022/10/23 02:40:44;;;;;;;1.90;1.80;;;23.30;99.90;;;;;;4980749;28;20475;-85
2022/10/23 02:43:23;;;;;;;2.15;1.80;;;23.20;99.90;;;;;;4986658;28;20396;-84
2022/10/23 02:46:00;;;;;;;3.92;2.05;;;23.20;99.90;;;;;;4990664;28;20493;-88
2022/10/23 02:48:41;;;;;;;2.83;2.00;;;23.10;99.90;;;;;;4977085;28;20969;-88
2022/10/23 02:51:32;;;;;;;2.60;1.80;;;23.20;99.90;;;;;;4969301;28;20899;-89
2022/10/23 02:54:28;;;;;;;1.90;1.70;;;23.30;99.90;;;;;;4971759;28;20390;-90
2022/10/23 02:57:20;;;;;;;2.05;1.80;;;23.30;99.90;;;;;;5015578;28;20377;-87
2022/10/23 03:00:07;;;;;;;2.95;1.80;;;23.30;99.90;;;;;;5006354;28;20389;-87
2022/10/23 03:02:40;;;;;;;2.35;1.90;;;23.20;99.90;;;;;;5008652;28;20443;-94
2022/10/23 03:05:14;;;;;;;1.85;1.75;;;23.30;99.90;;;;;;5007218;28;20392;-89
2022/10/23 03:07:50;;;;;;;1.70;1.60;;;23.40;99.90;;;;;;5009334;28;20393;-91
2022/10/23 03:10:25;;;;;;;1.85;1.75;;;23.70;99.90;;;;;;5006790;28;20381;-88
2022/10/23 03:12:55;;;;;;;3.10;2.03;;;23.80;99.90;;;;;;5006403;28;20401;-93
2022/10/23 03:15:24;;;;;;;4.22;3.00;;;24.00;99.90;;;;;;5007250;28;20519;-93
2022/10/23 03:17:58;;;;;;;3.28;2.90;;;24.10;99.90;;;;;;5021077;28;20389;-93
2022/10/23 03:20:27;;;;;;;4.93;3.00;;;24.80;99.90;;;;;;5022436;28;20416;-89
2022/10/23 03:23:02;;;;;;;2.97;2.17;;;24.40;99.90;;;;;;5008578;28;20393;-92
2022/10/23 03:25:30;;;;;;;2.47;1.73;;;24.60;99.90;;;;;;4987774;28;20451;-85
2022/10/23 03:27:59;;;;;;;3.20;1.80;;;24.80;99.90;;;;;;5007087;28;20894;-89
2022/10/23 03:30:28;;;;;;;1.80;1.50;;;24.90;99.90;;;;;;5015924;28;20431;-87
2022/10/23 03:33:05;;;;;;;2.30;1.60;;;24.70;99.90;;;;;;5005830;28;20381;-94
2022/10/23 03:35:38;;;;;;;1.88;1.30;;;24.20;99.90;;;;;;5005233;28;20381;-89
2022/10/23 03:38:08;;;;;;;2.53;1.60;;;23.80;99.90;;;;;;5006984;28;20468;-88
2022/10/23 03:40:40;;;;;;;3.00;1.70;;;23.40;99.90;;;;;;5008299;28;20437;-94
2022/10/23 03:43:10;;;;;;;2.97;1.92;;;23.30;99.90;;;;;;5013504;28;20373;-89
2022/10/23 03:45:44;;;;;;;3.27;1.70;;;23.30;99.90;;;;;;5006104;28;20451;-88
2022/10/23 03:48:13;;;;;;;3.33;2.08;;;23.40;99.90;;;;;;5017893;28;20385;-90
2022/10/23 03:50:40;;;;;;;3.28;2.00;;;23.60;99.90;;;;;;5001154;28;20405;-90
2022/10/23 03:53:11;;;;;;;3.15;2.10;;;23.90;99.90;;;;;;5001525;28;20383;-90
2022/10/23 03:55:40;;;;;;;3.42;2.10;;;26.50;99.90;;;;;;5002141;28;20385;-86
2022/10/23 03:58:10;;;;;;;5.10;2.45;;;24.50;99.90;;;;;;5002436;28;20714;-84
2022/10/23 04:00:41;;;;;;;2.88;2.10;;;24.70;99.90;;;;;;5000645;28;20392;-88
2022/10/23 04:03:11;;;;;;;3.45;1.88;;;24.60;99.90;;;;;;5018904;28;20365;-85
2022/10/23 04:05:42;;;;;;;2.72;1.85;;;24.50;99.90;;;;;;5001741;28;20384;-85
2022/10/23 04:08:18;;;;;;;2.80;1.90;;;24.80;99.90;;;;;;5000481;28;20384;-88
2022/10/23 04:10:53;;;;;;;2.80;1.73;;;25.00;99.90;;;;;;5001655;28;20404;-87
2022/10/23 04:13:24;;;;;;;4.88;2.20;;;24.90;99.90;;;;;;4982778;28;20375;-88
2022/10/23 04:15:56;;;;;;;6.57;2.00;;;25.00;99.90;;;;;;4999086;28;20397;-85
2022/10/23 04:18:27;;;;;;;4.47;1.90;;;24.70;99.90;;;;;;5005034;28;20470;-86
2022/10/23 04:20:57;;;;;;;4.03;1.65;;;24.60;99.90;;;;;;5033050;28;20955;-86
2022/10/23 04:23:43;;;;;;;3.20;1.40;;;24.30;99.90;;;;;;5025866;28;20392;-85
2022/10/23 04:26:20;;;;;;;4.30;1.38;;;24.30;99.90;;;;;;5027343;28;20990;-83
2022/10/23 04:28:55;;;;;;;2.60;1.43;;;24.10;99.90;;;;;;5004039;28;20394;-88
2022/10/23 04:31:26;;;;;;;3.22;1.80;;;23.60;99.90;;;;;;5030208;28;20444;-90
2022/10/23 04:33:53;;;;;;;2.47;1.42;;;23.20;99.90;;;;;;5033551;28;20369;-85
2022/10/23 04:36:27;;;;;;;2.83;1.58;;;22.90;99.90;;;;;;5005683;28;20372;-82
2022/10/23 04:38:56;;;;;;;3.17;1.67;;;22.50;99.90;;;;;;5030891;28;20777;-87
2022/10/23 04:41:26;;;;;;;2.50;1.70;;;22.30;99.90;;;;;;5036550;28;20379;-85
2022/10/23 04:43:59;;;;;;;2.97;1.70;;;21.90;99.90;;;;;;5027568;28;20419;-87
2022/10/23 04:46:34;;;;;;;3.10;1.65;;;21.70;99.90;;;;;;5017464;28;20422;-89
2022/10/23 04:49:07;;;;;;;2.33;1.40;;;21.50;99.90;;;;;;5021136;28;20461;-86
2022/10/23 04:51:34;;;;;;;2.53;1.60;;;21.30;99.90;;;;;;5007480;28;20425;-84
2022/10/23 04:54:01;;;;;;;2.80;1.60;;;21.20;99.90;;;;;;4974230;28;20859;-85
2022/10/23 04:56:33;;;;;;;3.13;1.90;;;20.90;99.90;;;;;;4989483;28;20391;-87
2022/10/23 04:59:05;;;;;;;3.50;1.93;;;20.70;99.90;;;;;;4980684;28;20383;-84
2022/10/23 05:01:32;;;;;;;5.75;2.33;;;20.60;99.90;;;;;;4980180;28;20867;-84
2022/10/23 05:03:59;;;;;;;4.07;2.30;;;20.40;99.90;;;;;;4978271;28;20387;-87
2022/10/23 05:06:26;;;;;;;6.07;2.40;;;20.20;99.90;;;;;;4978903;28;20428;-84
2022/10/23 05:08:55;;;;;;;5.60;2.90;;;19.90;99.90;;;;;;4994264;28;20378;-88
2022/10/23 05:11:22;;;;;;;7.13;3.50;;;19.70;99.90;;;;;;4981361;28;20418;-87
2022/10/23 05:13:49;;;;;;;7.20;4.45;;;19.60;99.90;;;;;;4981414;28;20379;-78
2022/10/23 05:16:57;;;;;;;7.88;4.25;;;19.50;99.90;;;;;;4976974;28;20465;-82
2022/10/23 05:19:31;;;;;;;7.18;4.35;;;19.40;99.90;;;;;;4967093;28;20874;-80
2022/10/23 05:21:58;;;;;;;6.40;4.03;;;19.40;99.90;;;;;;4975989;28;20434;-82
2022/10/23 05:24:27;;;;;;;7.03;4.10;;;19.40;99.90;;;;;;4975381;28;20434;-83
2022/10/23 05:26:57;;;;;;;6.13;4.22;;;19.40;99.90;;;;;;4977240;28;20399;-82
2022/10/23 05:29:24;;;;;;;6.57;4.57;;;19.30;99.90;;;;;;4993407;28;20459;-80
2022/10/23 05:31:58;;;;;;;7.80;4.38;;;19.20;99.90;;;;;;4996858;28;20507;-80
2022/10/23 05:34:27;;;;;;;8.70;4.50;;;19.20;99.90;;;;;;4999425;28;20452;-81
2022/10/23 05:36:57;;;;;;;8.00;4.88;;;19.20;99.90;;;;;;4999219;28;20550;-81
2022/10/23 05:39:25;;;;;;;9.55;5.78;;;19.10;99.90;;;;;;5000718;28;20365;-82
2022/10/23 05:41:55;;;;;;;7.10;4.30;;;19.10;99.90;;;;;;5000839;28;20448;-81
2022/10/23 05:44:22;;;;;;;6.97;4.25;;;19.10;99.90;;;;;;4986781;28;20381;-80
2022/10/23 05:46:50;;;;;;;7.65;4.63;;;19.10;99.90;;;;;;5001396;28;20387;-81
2022/10/23 05:49:21;;;;;;;8.10;5.10;;;19.00;99.90;;;;;;5000292;28;20448;-80
2022/10/23 05:51:51;;;;;;;10.45;5.90;;;19.00;99.90;;;;;;5011899;28;20423;-82
2022/10/23 05:54:21;;;;;;;9.88;6.57;;;18.90;99.90;;;;;;5002340;28;20400;-80
2022/10/23 05:56:49;;;;;;;10.20;7.17;;;18.80;99.90;;;;;;4999712;28;20481;-82
2022/10/23 05:59:16;;;;;;;11.83;7.97;;;18.90;99.90;;;;;;4992753;28;20400;-81
2022/10/23 06:01:43;;;;;;;11.13;7.73;;;18.90;99.90;;;;;;4993496;28;20427;-81
2022/10/23 06:04:09;;;;;;;10.93;7.73;;;18.90;99.90;;;;;;4993203;28;20477;-80
2022/10/23 06:06:36;;;;;;;12.63;8.52;;;18.90;99.90;;;;;;5007824;28;20396;-82
2022/10/23 06:09:04;;;;;;;13.77;8.43;;;18.80;99.90;;;;;;5004552;28;20466;-81
2022/10/23 06:11:31;;;;;;;10.80;6.00;;;18.80;99.90;;;;;;4993022;28;20409;-82
2022/10/23 06:13:59;;;;;;;12.43;5.88;;;18.80;99.90;;;;;;4992281;28;20884;-82
2022/10/23 06:16:26;;;;;;;10.57;6.38;;;18.70;99.90;;;;;;4991679;28;20397;-83
2022/10/23 06:18:56;;;;;;;13.70;8.18;;;18.60;99.90;;;;;;4993202;28;20460;-82
2022/10/23 06:21:23;;;;;;;14.65;8.00;;;18.60;99.90;;;;;;4989786;28;20437;-82
2022/10/23 06:23:54;;;;;;;12.88;6.30;;;18.60;99.90;;;;;;4994872;28;20397;-83
2022/10/23 06:26:21;;;;;;;14.20;6.33;;;18.60;99.90;;;;;;4995535;28;20385;-82
2022/10/23 06:28:49;;;;;;;11.03;5.13;;;18.60;99.90;;;;;;4999027;28;20457;-83
2022/10/23 06:31:18;;;;;;;12.70;5.40;;;18.50;99.90;;;;;;5003199;28;20413;-84
2022/10/23 06:33:45;;;;;;;12.30;5.30;;;18.50;99.90;;;;;;5000609;28;20866;-84
2022/10/23 06:36:15;;;;;;;12.45;5.20;;;18.40;99.90;;;;;;4998264;28;20384;-81
2022/10/23 06:38:45;;;;;;;11.60;5.10;;;18.40;99.90;;;;;;4998392;28;20396;-82
2022/10/23 06:41:15;;;;;;;14.18;5.20;;;18.40;99.90;;;;;;4986213;28;20391;-81
2022/10/23 06:43:46;;;;;;;11.88;5.05;;;18.40;99.90;;;;;;4994744;28;20420;-82
2022/10/23 06:46:13;;;;;;;10.30;4.78;;;18.50;99.90;;;;;;4994176;28;20389;-81
2022/10/23 06:48:44;;;;;;;9.65;4.60;;;18.50;99.90;;;;;;4993275;28;20383;-80
2022/10/23 06:51:13;;;;;;;13.10;4.85;;;18.40;99.90;;;;;;4986792;28;20408;-81
2022/10/23 06:53:40;;;;;;;11.60;5.05;;;18.40;99.90;;;;;;4993705;28;20432;-81
2022/10/23 06:56:09;;;;;;;10.50;4.20;;;18.50;99.90;;;;;;4993324;28;20369;-81
2022/10/23 06:58:38;;;;;;;12.35;4.38;;;18.60;99.90;;;;;;4993529;28;20395;-80
2022/10/23 07:01:11;;;;;;;11.23;4.40;;;18.50;99.90;;;;;;4993677;28;20392;-82
2022/10/23 07:03:38;;;;;;;10.40;4.32;;;18.50;99.90;;;;;;4994039;28;20381;-82
2022/10/23 07:06:09;;;;;;;13.82;4.90;;;18.50;99.90;;;;;;4994456;28;20371;-82
2022/10/23 07:08:37;;;;;;;13.93;4.97;;;18.50;99.90;;;;;;4994486;28;20369;-83
2022/10/23 07:11:05;;;;;;;18.33;9.37;;;18.50;99.90;;;;;;4993362;28;20413;-82
2022/10/23 07:13:37;;;;;;;38.22;30.67;;;18.50;99.90;;;;;;4996006;28;20942;-83
2022/10/23 07:16:21;;;;;;;12.60;5.23;;;18.40;99.90;;;;;;4994889;28;20480;-82
2022/10/23 07:18:57;;;;;;;14.15;5.97;;;18.40;99.90;;;;;;4993291;28;20414;-84
2022/10/23 07:21:26;;;;;;;16.88;6.93;;;18.40;99.90;;;;;;4992158;28;20393;-83
2022/10/23 07:23:53;;;;;;;12.23;5.00;;;18.40;99.90;;;;;;4993553;28;20433;-82
2022/10/23 07:26:20;;;;;;;15.70;9.27;;;18.40;99.90;;;;;;4996696;28;20497;-82
2022/10/23 07:28:54;;;;;;;12.52;4.88;;;18.40;99.90;;;;;;4997743;28;20399;-81
2022/10/23 07:31:22;;;;;;;19.10;8.95;;;18.40;99.90;;;;;;5003344;28;20420;-83
2022/10/23 07:33:50;;;;;;;14.85;6.43;;;18.40;99.90;;;;;;4994481;28;20426;-81
2022/10/23 07:36:19;;;;;;;17.33;7.68;;;18.50;99.90;;;;;;4994301;28;20503;-83
2022/10/23 07:38:46;;;;;;;12.63;4.50;;;18.50;99.90;;;;;;5010709;28;20887;-82
2022/10/23 07:41:14;;;;;;;15.18;4.68;;;18.40;99.90;;;;;;4996905;28;20478;-81
2022/10/23 07:43:41;;;;;;;12.45;4.00;;;18.40;99.90;;;;;;4997388;28;20517;-83
2022/10/23 07:46:09;;;;;;;12.27;4.90;;;18.30;99.90;;;;;;4996576;28;20400;-82
2022/10/23 07:48:45;;;;;;;16.08;5.18;;;18.30;99.90;;;;;;5004067;28;20395;-85
2022/10/23 07:51:14;;;;;;;18.67;7.77;;;18.30;99.90;;;;;;4985587;28;20414;-83
2022/10/23 07:53:43;;;;;;;15.27;4.75;;;18.30;99.90;;;;;;5000832;28;20387;-81
2022/10/23 07:56:30;;;;;;;17.77;6.53;;;18.30;99.90;;;;;;4996198;28;20401;-89
2022/10/23 07:58:58;;;;;;;13.98;5.07;;;18.30;99.90;;;;;;4989630;28;20385;-84
2022/10/23 08:01:37;;;;;;;18.70;6.00;;;18.30;99.90;;;;;;4998904;28;20945;-83
2022/10/23 08:04:05;;;;;;;14.30;5.80;;;18.20;99.90;;;;;;5006943;28;20399;-83
2022/10/23 08:06:34;;;;;;;15.73;6.93;;;18.20;99.90;;;;;;4995318;28;20493;-83
2022/10/23 08:09:01;;;;;;;16.88;6.72;;;18.20;99.90;;;;;;5001267;28;20722;-83
2022/10/23 08:11:34;;;;;;;18.55;8.98;;;18.10;99.90;;;;;;4995254;28;20419;-83
2022/10/23 08:14:05;;;;;;;17.00;6.70;;;18.10;99.90;;;;;;5000657;28;20373;-84
2022/10/23 08:16:36;;;;;;;16.48;6.30;;;18.20;99.90;;;;;;5020675;28;20887;-84
2022/10/23 08:19:07;;;;;;;19.25;6.60;;;18.20;99.90;;;;;;5017873;28;20405;-84
2022/10/23 08:21:34;;;;;;;18.10;6.10;;;18.10;99.90;;;;;;5008278;28;20385;-83
2022/10/23 08:24:06;;;;;;;15.35;5.20;;;18.10;99.90;;;;;;5006021;28;20387;-83
2022/10/23 08:26:43;;;;;;;17.65;5.88;;;18.00;99.90;;;;;;5022465;28;20396;-82
2022/10/23 08:29:15;;;;;;;19.20;4.83;;;18.00;99.90;;;;;;5006091;28;20411;-84
2022/10/23 08:31:43;;;;;;;16.45;4.50;;;18.00;99.90;;;;;;5023029;28;20460;-83
2022/10/23 08:34:24;;;;;;;19.65;6.30;;;18.00;99.90;;;;;;4996510;28;20357;-86
2022/10/23 08:36:54;;;;;;;14.85;4.28;;;18.00;99.90;;;;;;5047337;28;20383;-85
2022/10/23 08:39:21;;;;;;;16.20;4.75;;;18.00;99.90;;;;;;5011611;28;20392;-81
2022/10/23 08:41:53;;;;;;;13.50;4.20;;;18.00;99.90;;;;;;5020986;28;20379;-84
2022/10/23 08:44:53;;;;;;;14.18;3.70;;;18.00;99.90;;;;;;5024021;28;20387;-84
2022/10/23 08:47:36;;;;;;;20.48;6.85;;;18.00;99.90;;;;;;5022691;28;20380;-85
2022/10/23 08:50:25;;;;;;;18.92;8.50;;;18.00;99.90;;;;;;5010383;28;20384;-81
2022/10/23 08:53:25;;;;;;;12.87;4.10;;;18.00;99.90;;;;;;5011969;28;20395;-85
2022/10/23 08:56:34;;;;;;;13.48;4.20;;;17.90;99.90;;;;;;5013184;28;20401;-85
2022/10/23 08:59:26;;;;;;;16.00;3.92;;;17.90;99.90;;;;;;4957666;28;20391;-84
2022/10/23 09:02:13;;;;;;;14.52;4.60;;;17.90;99.90;;;;;;4991706;28;20378;-85
2022/10/23 09:04:48;;;;;;;13.43;3.92;;;17.90;99.90;;;;;;4991460;28;20389;-85
2022/10/23 09:08:03;;;;;;;11.40;3.90;;;17.90;99.90;;;;;;4989070;28;20367;-83
2022/10/23 09:11:13;;;;;;;14.13;4.10;;;17.90;99.90;;;;;;4939718;29;20394;-85
2022/10/23 09:14:18;;;;;;;14.95;3.90;;;17.90;99.90;;;;;;4921582;29;20392;-88
2022/10/23 09:17:34;;;;;;;13.27;4.00;;;17.90;99.90;;;;;;4928618;29;20399;-87
2022/10/23 09:20:30;;;;;;;10.60;3.65;;;17.80;99.90;;;;;;4926391;29;20419;-85
2022/10/23 09:23:07;;;;;;;12.32;3.70;;;17.80;99.90;;;;;;4926033;29;20392;-86
2022/10/23 09:25:44;;;;;;;12.48;3.55;;;17.80;99.90;;;;;;4927152;29;20415;-84
2022/10/23 09:28:54;;;;;;;10.87;3.50;;;17.80;99.90;;;;;;4927507;29;20430;-82
2022/10/23 09:31:31;;;;;;;10.43;3.60;;;17.80;99.90;;;;;;4913190;29;20458;-85
2022/10/23 09:34:01;;;;;;;12.93;3.90;;;17.80;99.90;;;;;;4939859;29;20433;-84
2022/10/23 09:36:36;;;;;;;14.60;3.90;;;17.80;99.90;;;;;;4947220;29;20452;-86
2022/10/23 09:39:03;;;;;;;11.32;3.50;;;17.80;99.90;;;;;;4941748;29;20429;-86
2022/10/23 09:41:42;;;;;;;10.75;3.50;;;17.80;99.90;;;;;;4953327;29;20785;-84
2022/10/23 09:44:20;;;;;;;9.40;3.30;;;17.70;99.90;;;;;;4945497;29;20462;-86
2022/10/23 09:47:12;;;;;;;11.50;3.40;;;17.70;99.90;;;;;;4970390;28;20473;-85
2022/10/23 09:49:46;;;;;;;10.85;2.97;;;17.70;99.90;;;;;;4985213;28;20407;-86
2022/10/23 09:52:16;;;;;;;12.32;3.47;;;17.70;99.90;;;;;;5021724;28;20458;-87
2022/10/23 09:54:58;;;;;;;10.57;3.30;;;17.70;99.90;;;;;;5003940;28;20391;-85
2022/10/23 09:57:45;;;;;;;10.55;3.35;;;17.70;99.90;;;;;;5005378;28;20393;-84
2022/10/23 10:00:24;;;;;;;10.93;3.40;;;17.70;99.90;;;;;;5041408;28;20440;-85
2022/10/23 10:03:21;;;;;;;10.40;3.20;;;17.70;99.90;;;;;;5040015;28;20389;-86
2022/10/23 10:06:00;;;;;;;10.80;3.35;;;17.70;99.90;;;;;;5043556;28;20393;-87
2022/10/23 10:08:53;;;;;;;12.52;3.50;;;17.70;99.90;;;;;;5049120;28;20416;-83
2022/10/23 10:11:42;;;;;;;11.48;3.47;;;17.70;99.90;;;;;;5002340;28;20444;-85
2022/10/23 10:14:33;;;;;;;11.75;3.42;;;17.70;99.90;;;;;;5003707;28;20908;-85
2022/10/23 10:17:13;;;;;;;10.27;3.40;;;17.70;99.90;;;;;;4993440;28;20447;-84
2022/10/23 10:20:07;;;;;;;14.30;3.43;;;17.70;99.90;;;;;;4971839;28;20939;-86
2022/10/23 10:22:39;;;;;;;12.80;3.47;;;17.60;99.90;;;;;;4982187;28;20378;-84
2022/10/23 10:25:41;;;;;;;12.77;3.60;;;17.60;99.90;;;;;;5001946;28;20405;-85
2022/10/23 10:29:05;;;;;;;10.50;3.42;;;17.60;99.90;;;;;;5004963;28;20451;-85
2022/10/23 10:31:51;;;;;;;9.75;3.38;;;17.50;99.90;;;;;;4926542;29;20422;-84
2022/10/23 10:34:43;;;;;;;12.25;3.63;;;17.40;99.90;;;;;;4888885;29;20403;-85
2022/10/23 10:37:50;;;;;;;11.20;3.50;;;17.40;99.90;;;;;;4901856;29;20397;-85
2022/10/23 10:40:35;;;;;;;12.15;3.50;;;17.40;99.90;;;;;;4894358;29;20538;-86
2022/10/23 10:43:10;;;;;;;10.18;3.55;;;17.30;99.90;;;;;;4876243;29;20406;-84
2022/10/23 10:45:47;;;;;;;10.23;3.60;;;17.30;99.90;;;;;;4875691;29;20438;-86
2022/10/23 10:48:40;;;;;;;9.02;3.72;;;17.30;99.90;;;;;;4883266;29;20404;-85
2022/10/23 10:51:33;;;;;;;14.80;4.28;;;17.30;99.90;;;;;;4888884;29;20422;-85
2022/10/23 10:54:28;;;;;;;10.07;4.38;;;17.30;99.90;;;;;;4889722;29;21005;-85
2022/10/23 10:56:59;;;;;;;12.37;4.60;;;17.30;99.90;;;;;;4876619;29;20399;-84
2022/10/23 10:59:32;;;;;;;14.50;5.50;;;17.30;99.90;;;;;;4889486;29;20497;-84
2022/10/23 11:02:11;;;;;;;15.38;6.00;;;17.30;99.90;;;;;;4877819;29;20940;-85
2022/10/23 11:04:51;;;;;;;10.63;5.60;;;17.30;99.90;;;;;;4889546;29;20791;-85
2022/10/23 11:07:26;;;;;;;15.68;7.50;;;17.30;99.90;;;;;;4934761;28;20429;-86
2022/10/23 11:10:04;;;;;;;14.07;6.43;;;17.30;99.90;;;;;;4977776;28;21207;-85
2022/10/23 11:12:31;;;;;;;13.68;8.10;;;17.40;99.90;;;;;;5012981;28;20498;-85
2022/10/23 11:14:59;;;;;;;18.10;8.27;;;17.30;99.90;;;;;;4987338;28;20436;-85
2022/10/23 11:17:35;;;;;;;16.42;8.13;;;17.40;99.90;;;;;;5008081;28;20426;-85
2022/10/23 11:20:28;;;;;;;16.58;8.30;;;17.40;99.90;;;;;;4985943;28;20404;-85
2022/10/23 11:23:29;;;;;;;16.10;8.20;;;17.40;99.90;;;;;;4990593;28;20392;-85
2022/10/23 11:26:15;;;;;;;15.57;7.03;;;17.30;99.90;;;;;;4996565;28;20387;-85
2022/10/23 11:28:57;;;;;;;15.95;8.30;;;17.30;99.90;;;;;;4993954;28;20387;-85
2022/10/23 11:32:00;;;;;;;19.60;11.43;;;17.30;99.90;;;;;;4995137;28;20415;-84
2022/10/23 11:34:39;;;;;;;19.93;10.37;;;17.30;99.90;;;;;;4984599;28;20405;-85
2022/10/23 11:37:07;;;;;;;19.63;12.15;;;17.20;99.90;;;;;;4995205;28;20471;-85
2022/10/23 11:39:38;;;;;;;21.70;14.10;;;17.20;99.90;;;;;;4995686;28;20380;-85
2022/10/23 11:42:05;;;;;;;18.42;9.95;;;17.20;99.90;;;;;;5009172;28;20396;-84
2022/10/23 11:44:44;;;;;;;12.57;5.88;;;17.20;99.90;;;;;;4994788;28;20729;-85
2022/10/23 11:47:34;;;;;;;12.27;4.82;;;17.20;99.90;;;;;;4995139;28;20372;-84
2022/10/23 11:50:07;;;;;;;12.32;4.63;;;17.10;99.90;;;;;;4995070;28;20809;-84
2022/10/23 11:52:36;;;;;;;13.80;4.05;;;17.00;99.90;;;;;;4994165;28;20412;-84
2022/10/23 11:55:18;;;;;;;11.93;4.00;;;17.00;99.90;;;;;;4995267;28;20448;-85
2022/10/23 11:58:20;;;;;;;10.40;4.00;;;17.00;99.90;;;;;;4995067;28;20476;-85
2022/10/23 12:00:57;;;;;;;12.23;4.00;;;17.00;99.90;;;;;;4990604;28;20412;-85
2022/10/23 12:03:47;;;;;;;12.95;4.03;;;17.00;99.90;;;;;;5005573;28;20392;-85
2022/10/23 12:06:43;;;;;;;10.35;3.95;;;17.10;99.90;;;;;;4999363;28;20410;-85
2022/10/23 12:09:31;;;;;;;12.85;3.80;;;17.10;99.90;;;;;;5014371;28;20386;-84
2022/10/23 12:12:15;;;;;;;12.60;4.00;;;17.10;99.90;;;;;;5003747;28;20399;-85
2022/10/23 12:14:50;;;;;;;10.40;4.40;;;17.20;99.90;;;;;;4996408;28;20377;-85
2022/10/23 12:17:23;;;;;;;14.85;4.47;;;17.20;99.90;;;;;;4994737;28;20385;-85
2022/10/23 12:19:55;;;;;;;10.13;4.10;;;17.20;99.90;;;;;;5005827;28;20424;-85
2022/10/23 12:22:31;;;;;;;10.27;4.10;;;17.20;99.90;;;;;;4996794;28;20388;-84
2022/10/23 12:24:58;;;;;;;10.23;4.05;;;17.20;99.90;;;;;;5014394;28;20397;-84
2022/10/23 12:27:37;;;;;;;13.43;4.35;;;17.20;99.90;;;;;;4999174;28;20381;-84
2022/10/23 12:30:42;;;;;;;12.77;4.50;;;17.30;99.90;;;;;;4994047;28;20413;-85
2022/10/23 12:33:33;;;;;;;11.02;4.22;;;17.30;99.90;;;;;;4958365;28;20534;-85
2022/10/23 12:36:17;;;;;;;14.05;4.18;;;17.30;99.90;;;;;;4944544;28;20401;-85
2022/10/23 12:38:46;;;;;;;11.03;4.10;;;17.30;99.90;;;;;;4953891;28;21319;-85
2022/10/23 12:41:23;;;;;;;12.80;4.63;;;17.30;99.90;;;;;;4946958;28;20779;-85
2022/10/23 12:43:55;;;;;;;11.32;4.80;;;17.30;99.90;;;;;;4949920;28;20400;-85
2022/10/23 12:46:42;;;;;;;12.53;4.43;;;17.40;99.90;;;;;;4953711;28;20541;-85
2022/10/23 12:49:17;;;;;;;10.70;4.13;;;17.40;99.90;;;;;;4953485;28;20870;-85
2022/10/23 12:51:44;;;;;;;12.32;4.07;;;17.40;99.90;;;;;;4955336;28;20504;-85
2022/10/23 12:54:20;;;;;;;13.27;4.75;;;17.40;99.90;;;;;;4952867;28;20499;-85
2022/10/23 12:56:48;;;;;;;15.57;4.82;;;17.40;99.90;;;;;;4956001;28;20822;-85
2022/10/23 12:59:18;;;;;;;10.70;4.68;;;17.30;99.90;;;;;;4952530;28;20404;-85
2022/10/23 13:01:45;;;;;;;9.82;4.38;;;17.30;99.90;;;;;;4955960;28;20392;-83
2022/10/23 13:04:45;;;;;;;12.30;5.00;;;17.20;99.90;;;;;;4951975;28;20424;-85
2022/10/23 13:07:12;;;;;;;10.85;4.28;;;17.30;99.90;;;;;;4898545;29;20515;-84
2022/10/23 13:09:44;;;;;;;11.30;4.30;;;17.30;99.90;;;;;;4922233;29;20943;-84
2022/10/23 13:12:38;;;;;;;11.27;4.15;;;17.20;99.90;;;;;;4914114;29;20431;-84
2022/10/23 13:15:09;;;;;;;11.87;4.40;;;17.30;99.90;;;;;;4917776;29;20490;-84
2022/10/23 13:17:45;;;;;;;11.63;4.90;;;17.30;99.90;;;;;;4913571;29;20812;-83
2022/10/23 13:20:40;;;;;;;12.10;4.80;;;17.20;99.90;;;;;;4918107;29;20401;-84
2022/10/23 13:23:30;;;;;;;9.55;4.25;;;17.20;99.90;;;;;;4916970;29;20403;-83
2022/10/23 13:26:03;;;;;;;13.35;4.85;;;17.20;99.90;;;;;;4903976;29;20401;-83
2022/10/23 13:28:41;;;;;;;19.73;4.90;;;17.20;99.90;;;;;;4914034;29;20391;-84